Time;durP1;ratioP1;P1;durP2;ratioP2;P2;SDS_P1;SDS_P2;PMS_P1;PMS_P2;Temp;Humidity;BMP_temperature;BMP_pressure;BME280_temperature;BME280_humidity;BME280_pressure;Samples;Min_cycle;Max_cycle;Signal;HPM_P1;HPM_P2
2022/04/30 00:00:08;;;;;;;53.10;43.63;;;12.90;99.90;;;;;;5037385;28;20025;-61
2022/04/30 00:02:34;;;;;;;48.58;41.63;;;12.90;99.90;;;;;;5036316;28;20092;-61
2022/04/30 00:04:59;;;;;;;52.65;41.00;;;12.90;99.90;;;;;;5034298;28;20029;-61
2022/04/30 00:07:25;;;;;;;46.10;40.42;;;12.90;99.90;;;;;;5034235;28;20025;-61
2022/04/30 00:09:51;;;;;;;54.30;45.38;;;12.90;99.90;;;;;;5038886;28;20018;-61
2022/04/30 00:12:17;;;;;;;56.92;45.13;;;12.90;99.90;;;;;;5037317;28;20029;-61
2022/04/30 00:14:47;;;;;;;51.83;43.47;;;12.80;99.90;;;;;;5037411;28;20068;-61
2022/04/30 00:17:14;;;;;;;58.15;49.08;;;12.90;99.90;;;;;;5037071;28;20025;-62
2022/04/30 00:19:39;;;;;;;55.47;46.28;;;12.90;99.90;;;;;;5032722;28;20577;-61
2022/04/30 00:22:06;;;;;;;58.55;46.22;;;12.90;99.90;;;;;;5039071;28;20014;-61
2022/04/30 00:24:31;;;;;;;59.13;46.92;;;12.90;99.90;;;;;;5036571;28;20033;-62
2022/04/30 00:26:59;;;;;;;60.65;47.92;;;12.90;99.90;;;;;;5036894;28;20486;-61
2022/04/30 00:29:27;;;;;;;57.55;47.72;;;12.90;99.90;;;;;;5036867;28;20029;-61
2022/04/30 00:31:52;;;;;;;60.28;47.92;;;12.90;99.90;;;;;;5034852;28;20465;-61
2022/04/30 00:34:18;;;;;;;65.53;50.58;;;13.00;99.90;;;;;;5035633;28;20207;-61
2022/04/30 00:36:44;;;;;;;57.17;49.00;;;12.90;99.90;;;;;;5037938;28;20100;-61
2022/04/30 00:39:10;;;;;;;61.97;51.85;;;13.00;99.90;;;;;;5036047;28;20045;-61
2022/04/30 00:41:41;;;;;;;63.60;50.67;;;12.90;99.90;;;;;;5035642;28;20029;-61
2022/04/30 00:44:07;;;;;;;68.22;52.00;;;13.00;99.90;;;;;;5034484;28;20082;-61
2022/04/30 00:46:32;;;;;;;70.15;54.60;;;12.90;99.90;;;;;;5032798;28;20096;-61
2022/04/30 00:48:58;;;;;;;66.60;52.85;;;12.80;99.90;;;;;;5038468;28;20520;-61
2022/04/30 00:51:27;;;;;;;59.20;50.17;;;12.90;99.90;;;;;;5035338;28;20045;-61
2022/04/30 00:53:54;;;;;;;59.33;49.53;;;12.80;99.90;;;;;;5036131;28;20017;-61
2022/04/30 00:56:29;;;;;;;61.88;50.17;;;12.80;99.90;;;;;;5036253;28;20035;-61
2022/04/30 00:58:58;;;;;;;66.28;51.15;;;12.70;99.90;;;;;;5034193;28;20095;-61
2022/04/30 01:01:24;;;;;;;63.75;50.67;;;12.80;99.90;;;;;;5033582;28;20076;-61
2022/04/30 01:03:50;;;;;;;65.68;51.25;;;12.80;99.90;;;;;;5038654;28;20030;-62
2022/04/30 01:06:20;;;;;;;60.92;50.78;;;12.80;99.90;;;;;;5036233;28;20108;-61
2022/04/30 01:08:48;;;;;;;63.38;52.38;;;12.80;99.90;;;;;;5035097;28;20040;-61
2022/04/30 01:11:15;;;;;;;65.97;52.42;;;12.80;99.90;;;;;;5036121;28;20444;-61
2022/04/30 01:13:41;;;;;;;65.28;52.42;;;12.70;99.90;;;;;;5031994;28;20030;-61
2022/04/30 01:16:08;;;;;;;67.13;51.72;;;12.70;99.90;;;;;;5037678;28;20021;-61
2022/04/30 01:18:35;;;;;;;66.85;51.70;;;12.70;99.90;;;;;;5034426;28;20033;-61
2022/04/30 01:21:03;;;;;;;65.90;51.78;;;12.70;99.90;;;;;;5034698;28;20461;-61
2022/04/30 01:23:32;;;;;;;70.50;52.97;;;12.70;99.90;;;;;;5034685;28;20109;-61
2022/04/30 01:26:01;;;;;;;72.50;55.45;;;12.70;99.90;;;;;;5034054;28;20026;-61
2022/04/30 01:28:28;;;;;;;77.50;58.30;;;12.70;99.90;;;;;;5033011;28;20033;-61
2022/04/30 01:30:54;;;;;;;74.95;56.47;;;12.70;99.90;;;;;;5037659;28;20017;-61
2022/04/30 01:38:48;;;;;;;68.10;54.72;;;12.70;99.90;;;;;;5035010;28;20051;-61
2022/04/30 01:41:14;;;;;;;69.53;55.65;;;12.70;99.90;;;;;;5035901;28;20024;-61
2022/04/30 01:43:40;;;;;;;69.68;55.63;;;12.70;99.90;;;;;;5031575;28;20437;-61
2022/04/30 01:46:06;;;;;;;68.50;54.80;;;12.60;99.90;;;;;;5037277;28;20530;-61
2022/04/30 01:48:33;;;;;;;71.70;53.97;;;12.60;99.90;;;;;;5035277;28;20030;-62
2022/04/30 01:51:00;;;;;;;75.35;56.97;;;12.50;99.90;;;;;;5035439;28;20048;-61
2022/04/30 01:53:26;;;;;;;76.93;57.78;;;12.30;99.90;;;;;;5035232;28;20033;-61
2022/04/30 01:55:51;;;;;;;75.63;56.42;;;12.20;99.90;;;;;;5032543;28;20017;-61
2022/04/30 01:58:18;;;;;;;71.80;55.72;;;12.00;99.90;;;;;;5034436;28;20033;-61
2022/04/30 02:00:44;;;;;;;83.47;59.95;;;12.00;99.90;;;;;;5035279;28;20021;-61
2022/04/30 02:03:12;;;;;;;84.80;59.50;;;12.00;99.90;;;;;;5033077;28;20086;-61
2022/04/30 02:05:40;;;;;;;76.55;56.50;;;11.80;99.90;;;;;;5035033;28;20037;-61
2022/04/30 02:08:09;;;;;;;79.28;57.58;;;11.80;99.90;;;;;;5034441;28;20549;-61
2022/04/30 02:10:36;;;;;;;84.78;60.40;;;11.70;99.90;;;;;;5030793;28;20040;-61
2022/04/30 02:13:06;;;;;;;85.20;59.63;;;11.60;99.90;;;;;;5036915;28;20021;-61
2022/04/30 02:15:34;;;;;;;93.03;60.20;;;11.50;99.90;;;;;;5034798;28;20029;-61
2022/04/30 02:18:02;;;;;;;78.05;57.58;;;11.50;99.90;;;;;;5034501;28;20141;-61
2022/04/30 02:20:29;;;;;;;88.82;61.40;;;11.50;99.90;;;;;;5033998;28;20028;-61
2022/04/30 02:23:01;;;;;;;90.57;61.80;;;11.60;99.90;;;;;;5032694;28;20057;-61
2022/04/30 02:25:27;;;;;;;88.15;60.17;;;11.70;99.90;;;;;;5031619;28;20494;-61
2022/04/30 02:28:04;;;;;;;76.88;55.95;;;11.60;99.90;;;;;;5037086;28;20041;-61
2022/04/30 02:30:35;;;;;;;81.65;58.72;;;11.60;99.90;;;;;;5034991;28;20079;-61
2022/04/30 02:33:27;;;;;;;80.43;57.38;;;11.60;99.90;;;;;;5034481;28;20025;-61
2022/04/30 02:35:53;;;;;;;88.05;60.00;;;11.60;99.90;;;;;;5033981;28;20041;-61
2022/04/30 02:38:19;;;;;;;79.25;58.30;;;11.50;99.90;;;;;;5033043;28;20497;-61
2022/04/30 02:40:45;;;;;;;82.63;58.58;;;11.60;99.90;;;;;;5029678;28;20403;-61
2022/04/30 02:43:16;;;;;;;87.22;60.00;;;11.60;99.90;;;;;;5035543;28;20036;-62
2022/04/30 02:45:43;;;;;;;72.68;55.78;;;11.50;99.90;;;;;;5034955;28;20368;-61
2022/04/30 02:48:09;;;;;;;72.55;54.38;;;11.40;99.90;;;;;;5034028;28;20545;-61
2022/04/30 02:50:36;;;;;;;80.80;57.50;;;11.50;99.90;;;;;;5034713;28;20032;-61
2022/04/30 02:53:03;;;;;;;91.95;60.45;;;11.40;99.90;;;;;;5033215;28;20464;-62
2022/04/30 02:55:29;;;;;;;86.93;57.92;;;11.30;99.90;;;;;;5030876;28;20113;-61
2022/04/30 03:00:49;;;;;;;81.70;58.17;;;11.50;99.90;;;;;;5035323;28;20072;-61
2022/04/30 03:03:16;;;;;;;85.78;58.05;;;11.60;99.90;;;;;;5033900;28;20036;-62
2022/04/30 03:05:44;;;;;;;85.28;57.40;;;11.70;99.90;;;;;;5034225;28;20030;-61
2022/04/30 03:08:12;;;;;;;87.53;59.17;;;11.70;99.90;;;;;;5032657;28;20032;-61
2022/04/30 03:10:44;;;;;;;101.75;64.88;;;11.70;99.90;;;;;;5014275;28;20026;-61
2022/04/30 03:13:10;;;;;;;92.00;60.28;;;11.80;99.90;;;;;;5043912;28;20393;-61
2022/04/30 03:15:39;;;;;;;81.45;57.65;;;11.80;99.90;;;;;;5034842;28;20021;-61
2022/04/30 03:23:37;;;;;;;117.65;67.28;;;11.80;99.90;;;;;;5034306;28;20056;-62
2022/04/30 03:26:04;;;;;;;106.53;66.68;;;11.90;99.90;;;;;;5032813;28;20452;-61
2022/04/30 03:28:30;;;;;;;123.15;70.47;;;11.90;99.90;;;;;;5031116;28;20213;-61
2022/04/30 03:30:55;;;;;;;103.53;64.97;;;11.90;99.90;;;;;;5035897;28;20030;-61
2022/04/30 03:33:21;;;;;;;140.95;73.43;;;11.80;99.90;;;;;;5037198;28;20116;-61
2022/04/30 03:35:47;;;;;;;118.70;67.07;;;11.90;99.90;;;;;;5037897;28;20022;-61
2022/04/30 03:38:13;;;;;;;100.57;65.00;;;12.00;99.90;;;;;;5038082;28;20041;-61
2022/04/30 03:40:42;;;;;;;100.47;66.40;;;11.90;99.90;;;;;;5033534;28;20668;-61
2022/04/30 03:43:08;;;;;;;97.28;65.28;;;11.90;99.90;;;;;;5047382;28;20029;-61
2022/04/30 03:45:34;;;;;;;91.47;63.20;;;12.00;99.90;;;;;;5038049;28;20021;-61
2022/04/30 03:48:00;;;;;;;88.80;63.10;;;11.90;99.90;;;;;;5037321;28;20025;-61
2022/04/30 03:50:26;;;;;;;78.25;58.42;;;12.00;99.90;;;;;;5037521;28;20029;-62
2022/04/30 03:52:51;;;;;;;79.90;60.88;;;12.00;99.90;;;;;;5035154;28;20029;-61
2022/04/30 03:55:17;;;;;;;81.53;60.72;;;12.00;99.90;;;;;;5036767;28;20029;-61
2022/04/30 03:57:43;;;;;;;81.97;58.42;;;12.00;99.90;;;;;;5037218;28;20390;-61
2022/04/30 04:00:10;;;;;;;82.50;60.63;;;12.00;99.90;;;;;;5036129;28;20037;-61
2022/04/30 04:02:40;;;;;;;78.15;59.58;;;12.00;99.90;;;;;;5037081;28;20040;-61
2022/04/30 04:05:12;;;;;;;81.60;60.40;;;11.90;99.90;;;;;;5036578;28;20107;-61
2022/04/30 04:07:41;;;;;;;73.35;58.83;;;12.00;99.90;;;;;;5017544;28;20057;-61
2022/04/30 04:10:09;;;;;;;73.05;57.83;;;12.00;99.90;;;;;;5046890;28;20041;-61
2022/04/30 04:12:36;;;;;;;70.72;57.65;;;12.10;99.90;;;;;;5037601;28;20026;-61
2022/04/30 04:17:48;;;;;;;71.10;57.08;;;12.10;99.90;;;;;;5037256;28;20048;-61
2022/04/30 04:20:14;;;;;;;72.43;58.10;;;12.10;99.90;;;;;;5037308;28;20029;-61
2022/04/30 04:22:40;;;;;;;71.47;58.25;;;12.10;99.90;;;;;;5032667;28;20172;-61
2022/04/30 04:27:54;;;;;;;62.88;53.42;;;12.10;99.90;;;;;;5036898;28;20037;-61
2022/04/30 04:30:24;;;;;;;75.40;57.35;;;12.20;99.90;;;;;;5036714;28;20072;-61
2022/04/30 04:32:50;;;;;;;68.68;56.20;;;12.20;99.90;;;;;;5036767;28;20032;-61
2022/04/30 04:35:16;;;;;;;68.32;55.38;;;12.20;99.90;;;;;;5035220;28;20025;-61
2022/04/30 04:37:43;;;;;;;72.65;55.78;;;12.10;99.90;;;;;;5031667;28;20472;-61
2022/04/30 04:40:11;;;;;;;64.32;54.80;;;12.10;99.90;;;;;;5037598;28;20522;-61
2022/04/30 04:42:37;;;;;;;61.75;51.63;;;12.20;99.90;;;;;;5035427;28;20475;-61
2022/04/30 04:45:04;;;;;;;60.50;53.03;;;12.30;99.90;;;;;;5035574;28;20033;-61
2022/04/30 04:47:30;;;;;;;69.28;55.20;;;12.20;99.90;;;;;;5036902;28;20036;-61
2022/04/30 04:49:56;;;;;;;66.78;55.20;;;12.20;99.90;;;;;;5034692;28;20041;-61
2022/04/30 04:52:22;;;;;;;63.80;53.05;;;12.10;99.90;;;;;;5034388;28;20022;-61
2022/04/30 04:54:48;;;;;;;66.50;54.33;;;12.20;99.90;;;;;;5068338;28;20440;-61
2022/04/30 04:57:15;;;;;;;65.03;54.17;;;12.30;99.90;;;;;;5036448;28;20021;-61
2022/04/30 04:59:41;;;;;;;64.78;54.47;;;12.20;99.90;;;;;;5035978;28;20029;-61
2022/04/30 05:02:07;;;;;;;69.10;56.35;;;12.20;99.90;;;;;;5035952;28;20021;-62
2022/04/30 05:04:33;;;;;;;65.07;55.05;;;12.20;99.90;;;;;;5032272;28;20113;-61
2022/04/30 05:07:03;;;;;;;64.68;54.30;;;12.20;99.90;;;;;;5038212;28;20083;-61
2022/04/30 05:09:31;;;;;;;59.72;52.70;;;12.30;99.90;;;;;;5036499;28;20097;-61
2022/04/30 05:12:01;;;;;;;58.60;52.28;;;12.30;99.90;;;;;;5036097;28;20037;-61
2022/04/30 05:14:28;;;;;;;62.55;54.25;;;12.40;99.90;;;;;;5034335;28;20424;-61
2022/04/30 05:16:54;;;;;;;62.72;54.30;;;12.30;99.90;;;;;;5032494;28;20036;-61
2022/04/30 05:19:20;;;;;;;64.43;55.58;;;12.30;99.90;;;;;;5034133;28;20041;-61
2022/04/30 05:21:45;;;;;;;60.47;53.45;;;12.40;99.90;;;;;;5037565;28;20036;-61
2022/04/30 05:24:11;;;;;;;66.20;55.58;;;12.40;99.90;;;;;;5035815;28;20028;-61
2022/04/30 05:26:37;;;;;;;62.40;54.42;;;12.40;99.90;;;;;;5035756;28;20485;-61
2022/04/30 05:29:02;;;;;;;60.80;53.65;;;12.30;99.90;;;;;;5034448;28;20028;-61
2022/04/30 05:31:28;;;;;;;62.92;53.80;;;12.40;99.90;;;;;;5032440;28;20033;-61
2022/04/30 05:33:54;;;;;;;65.57;55.60;;;12.40;99.90;;;;;;5037782;28;20033;-61
2022/04/30 05:36:20;;;;;;;65.45;55.97;;;12.40;99.90;;;;;;5035925;28;20508;-61
2022/04/30 05:38:47;;;;;;;68.18;56.40;;;12.40;99.90;;;;;;5035341;28;20053;-61
2022/04/30 05:41:12;;;;;;;64.05;55.67;;;12.40;99.90;;;;;;5035333;28;20025;-61
2022/04/30 05:43:38;;;;;;;66.97;56.33;;;12.40;99.90;;;;;;5031018;28;20045;-61
2022/04/30 05:46:04;;;;;;;63.60;54.65;;;12.40;99.90;;;;;;5048561;28;20021;-61
2022/04/30 05:48:29;;;;;;;67.20;56.50;;;12.50;99.90;;;;;;5036252;28;20464;-61
2022/04/30 05:50:55;;;;;;;63.70;56.10;;;12.50;99.90;;;;;;5035488;28;20435;-61
2022/04/30 05:53:21;;;;;;;68.07;55.72;;;12.50;99.90;;;;;;5033784;28;20036;-61
2022/04/30 05:55:47;;;;;;;66.07;56.47;;;12.50;99.90;;;;;;5030271;28;20026;-61
2022/04/30 05:58:12;;;;;;;64.03;54.00;;;12.50;99.90;;;;;;5034890;28;20041;-61
2022/04/30 06:00:38;;;;;;;65.43;55.92;;;12.60;99.90;;;;;;5068273;28;20167;-61
2022/04/30 06:03:04;;;;;;;63.42;54.50;;;12.70;99.90;;;;;;5050481;28;20398;-61
2022/04/30 06:05:30;;;;;;;62.95;53.88;;;12.70;99.90;;;;;;5035183;28;20025;-61
2022/04/30 06:07:55;;;;;;;59.35;53.08;;;12.80;99.90;;;;;;5032843;28;20037;-61
2022/04/30 06:10:21;;;;;;;58.28;51.75;;;12.80;99.90;;;;;;5032934;28;20053;-61
2022/04/30 06:12:47;;;;;;;60.63;52.50;;;12.80;99.90;;;;;;5036725;28;20485;-61
2022/04/30 06:15:13;;;;;;;60.80;54.10;;;13.00;99.90;;;;;;5035032;28;20026;-61
2022/04/30 06:17:38;;;;;;;57.88;51.20;;;12.90;99.90;;;;;;5034945;28;20101;-61
2022/04/30 06:20:04;;;;;;;57.60;51.30;;;13.00;99.90;;;;;;5033937;28;20033;-61
2022/04/30 06:22:30;;;;;;;56.50;50.33;;;13.00;99.90;;;;;;5031254;28;20018;-61
2022/04/30 06:24:56;;;;;;;55.33;49.33;;;13.10;99.90;;;;;;5036846;28;20090;-61
2022/04/30 06:27:22;;;;;;;56.67;50.50;;;13.20;99.90;;;;;;5034431;28;20025;-61
2022/04/30 06:29:51;;;;;;;58.75;50.92;;;13.20;99.90;;;;;;5035128;28;20026;-61
2022/04/30 06:32:17;;;;;;;53.95;48.13;;;13.20;99.90;;;;;;5033343;28;20021;-61
2022/04/30 06:34:42;;;;;;;54.83;48.03;;;13.30;99.90;;;;;;5029303;28;20026;-61
2022/04/30 06:37:08;;;;;;;55.03;48.90;;;13.40;99.90;;;;;;5036197;28;20414;-61
2022/04/30 06:39:34;;;;;;;53.63;47.58;;;13.50;99.90;;;;;;5034606;28;20064;-61
2022/04/30 06:42:00;;;;;;;54.28;48.40;;;13.50;99.90;;;;;;5034041;28;20025;-61
2022/04/30 06:44:25;;;;;;;55.13;47.00;;;13.60;99.90;;;;;;5034604;28;20028;-61
2022/04/30 06:46:51;;;;;;;50.95;45.63;;;13.60;99.90;;;;;;5031848;28;20026;-61
2022/04/30 06:49:17;;;;;;;51.53;45.85;;;13.70;99.90;;;;;;5032581;28;20072;-61
2022/04/30 06:51:42;;;;;;;50.80;45.40;;;13.90;99.90;;;;;;5035743;28;20071;-61
2022/04/30 06:59:44;;;;;;;;;;;14.00;99.90;;;;;;5034846;28;20414;-61
2022/04/30 07:02:23;;;;;;;45.85;40.92;;;14.10;99.90;;;;;;5034273;28;20050;-61
2022/04/30 07:04:51;;;;;;;44.33;39.92;;;14.20;99.90;;;;;;5017427;28;20409;-61
2022/04/30 07:07:21;;;;;;;43.75;39.47;;;14.30;99.90;;;;;;5037678;28;20033;-61
2022/04/30 07:09:47;;;;;;;45.13;40.45;;;14.40;99.90;;;;;;5042262;28;20489;-61
2022/04/30 07:12:14;;;;;;;44.38;39.65;;;14.40;99.90;;;;;;5039506;28;20437;-61
2022/04/30 07:14:41;;;;;;;42.50;38.25;;;14.50;99.90;;;;;;5039402;28;20076;-61
2022/04/30 07:17:09;;;;;;;42.50;38.13;;;14.70;99.90;;;;;;5040659;28;20123;-61
2022/04/30 07:19:35;;;;;;;41.13;36.92;;;14.80;99.90;;;;;;5036578;28;20037;-61
2022/04/30 07:22:02;;;;;;;38.90;34.70;;;14.90;99.90;;;;;;5041443;28;20028;-60
2022/04/30 07:24:28;;;;;;;39.85;35.65;;;15.10;99.90;;;;;;5040424;28;20490;-61
2022/04/30 07:26:54;;;;;;;38.72;34.78;;;15.10;99.90;;;;;;5040629;28;20032;-63
2022/04/30 07:29:20;;;;;;;37.15;33.20;;;15.10;99.90;;;;;;5040949;28;20448;-61
2022/04/30 07:31:46;;;;;;;37.25;33.22;;;15.40;99.90;;;;;;5037354;28;20026;-61
2022/04/30 07:34:12;;;;;;;35.15;31.55;;;15.50;99.90;;;;;;5040931;28;20569;-61
2022/04/30 07:36:39;;;;;;;34.90;31.23;;;15.70;99.90;;;;;;5041076;28;20070;-61
2022/04/30 07:39:05;;;;;;;34.75;30.70;;;16.60;99.90;;;;;;5040033;28;20130;-61
2022/04/30 07:41:31;;;;;;;33.60;29.95;;;16.40;99.90;;;;;;5040472;28;20021;-61
2022/04/30 07:43:57;;;;;;;31.13;27.92;;;16.90;99.90;;;;;;5039049;28;20043;-61
2022/04/30 07:46:22;;;;;;;30.73;27.63;;;17.40;99.90;;;;;;5038169;28;20486;-61
2022/04/30 07:48:49;;;;;;;31.80;28.42;;;17.50;99.90;;;;;;5040000;28;20075;-61
2022/04/30 07:51:18;;;;;;;30.73;27.63;;;17.20;99.90;;;;;;5038532;28;20021;-61
2022/04/30 07:53:45;;;;;;;29.33;26.40;;;17.40;99.90;;;;;;5038986;28;20029;-61
2022/04/30 07:56:11;;;;;;;30.15;27.02;;;17.70;99.90;;;;;;5040244;28;20474;-61
2022/04/30 07:58:38;;;;;;;29.55;26.63;;;17.80;99.90;;;;;;5035461;28;20458;-61
2022/04/30 08:01:03;;;;;;;30.38;26.80;;;18.20;99.90;;;;;;5041831;28;20021;-61
2022/04/30 08:03:29;;;;;;;27.77;24.85;;;17.90;99.90;;;;;;5040121;28;20474;-61
2022/04/30 08:05:55;;;;;;;26.02;23.27;;;19.80;99.90;;;;;;5040594;28;20026;-61
2022/04/30 08:08:21;;;;;;;26.23;23.52;;;21.40;99.90;;;;;;5040160;28;20102;-61
2022/04/30 08:10:47;;;;;;;23.92;21.27;;;20.60;99.90;;;;;;5036963;28;20037;-61
2022/04/30 08:13:13;;;;;;;24.02;21.52;;;20.30;99.90;;;;;;5040351;28;20027;-61
2022/04/30 08:15:44;;;;;;;23.73;21.33;;;20.20;99.90;;;;;;5040800;28;20037;-61
2022/04/30 08:18:10;;;;;;;23.23;20.73;;;20.60;99.90;;;;;;5038634;28;20029;-61
2022/04/30 08:20:37;;;;;;;22.88;20.63;;;21.10;99.90;;;;;;5037319;28;20083;-61
2022/04/30 08:23:05;;;;;;;23.73;20.50;;;20.90;99.90;;;;;;5035573;28;20045;-61
2022/04/30 08:25:35;;;;;;;22.52;19.73;;;20.80;99.90;;;;;;5033539;28;20026;-61
2022/04/30 08:28:01;;;;;;;21.55;19.48;;;21.60;99.90;;;;;;5038622;28;20053;-61
2022/04/30 08:30:27;;;;;;;20.92;18.83;;;23.50;99.90;;;;;;5035949;28;20033;-61
2022/04/30 08:32:53;;;;;;;21.55;18.05;;;23.40;99.90;;;;;;5035351;28;20382;-59
2022/04/30 08:35:19;;;;;;;19.52;17.52;;;23.10;99.90;;;;;;5036347;28;20504;-61
2022/04/30 08:37:45;;;;;;;21.52;18.83;;;22.60;99.90;;;;;;5032348;28;20021;-60
2022/04/30 08:40:11;;;;;;;19.88;17.83;;;22.90;99.90;;;;;;5037140;28;20037;-60
2022/04/30 08:42:37;;;;;;;18.50;16.60;;;23.00;99.90;;;;;;5035269;28;20030;-61
2022/04/30 08:45:07;;;;;;;21.58;17.52;;;25.30;99.90;;;;;;5036475;28;20079;-61
2022/04/30 08:47:39;;;;;;;18.60;16.65;;;24.70;99.90;;;;;;5035406;28;20033;-61
2022/04/30 08:50:08;;;;;;;18.88;16.38;;;25.00;99.90;;;;;;5035732;28;20433;-61
2022/04/30 08:52:34;;;;;;;18.98;15.27;;;25.00;99.90;;;;;;5032567;28;20048;-62
2022/04/30 08:55:00;;;;;;;18.25;14.27;;;25.60;99.90;;;;;;5038418;28;20056;-61
2022/04/30 08:57:26;;;;;;;16.60;14.80;;;25.30;99.90;;;;;;5036220;28;20478;-61
2022/04/30 08:59:52;;;;;;;16.52;14.45;;;25.80;99.90;;;;;;5036206;28;20067;-61
2022/04/30 09:02:18;;;;;;;15.52;13.30;;;25.80;99.20;;;;;;5036387;28;20017;-61
2022/04/30 09:04:46;;;;;;;14.98;13.48;;;25.80;99.90;;;;;;5032528;28;20398;-61
2022/04/30 09:07:17;;;;;;;20.73;15.05;;;26.90;98.80;;;;;;5036470;28;20017;-61
2022/04/30 09:09:43;;;;;;;16.25;14.20;;;26.80;97.30;;;;;;5037587;28;20033;-61
2022/04/30 09:12:11;;;;;;;15.50;13.95;;;26.10;98.80;;;;;;5034705;28;20108;-61
2022/04/30 09:14:41;;;;;;;16.75;12.73;;;26.60;98.50;;;;;;5035957;28;20028;-61
2022/04/30 09:17:12;;;;;;;14.15;12.80;;;27.70;97.90;;;;;;5035729;28;20734;-61
2022/04/30 09:19:52;;;;;;;16.15;12.80;;;27.50;96.80;;;;;;5015450;28;20495;-60
2022/04/30 09:22:30;;;;;;;14.13;12.00;;;27.10;96.30;;;;;;5045800;28;20112;-61
2022/04/30 09:24:56;;;;;;;16.90;11.48;;;27.60;97.50;;;;;;5036593;28;20083;-61
2022/04/30 09:27:23;;;;;;;13.00;10.95;;;28.20;96.70;;;;;;5035700;28;20142;-62
2022/04/30 09:29:49;;;;;;;15.98;12.35;;;27.40;96.80;;;;;;5035185;28;20036;-61
2022/04/30 09:32:26;;;;;;;16.63;11.93;;;27.20;95.90;;;;;;5035822;28;20028;-61
2022/04/30 09:37:56;;;;;;;13.65;11.45;;;27.40;96.70;;;;;;5019038;28;20097;-61
2022/04/30 09:40:23;;;;;;;13.20;10.52;;;27.80;94.70;;;;;;5032691;28;20053;-61
2022/04/30 09:42:50;;;;;;;13.65;11.35;;;28.30;95.70;;;;;;5033165;28;20101;-61
2022/04/30 09:45:26;;;;;;;14.15;10.32;;;27.10;94.80;;;;;;5034464;28;20048;-61
2022/04/30 09:47:53;;;;;;;13.45;9.45;;;27.80;95.30;;;;;;5034349;28;20029;-61
2022/04/30 09:55:54;;;;;;;12.50;10.13;;;28.00;95.20;;;;;;5017481;28;20037;-61
2022/04/30 09:58:28;;;;;;;11.25;9.82;;;27.80;95.10;;;;;;5032622;28;20038;-61
2022/04/30 10:00:57;;;;;;;13.32;9.45;;;27.70;95.10;;;;;;5033537;28;20038;-62
2022/04/30 10:03:29;;;;;;;11.02;9.90;;;28.70;94.40;;;;;;5034301;28;20036;-61
2022/04/30 10:06:05;;;;;;;13.82;9.80;;;28.20;94.50;;;;;;5034123;28;20049;-61
2022/04/30 10:08:39;;;;;;;12.60;9.98;;;28.40;95.20;;;;;;5034243;28;20037;-61
2022/04/30 10:11:11;;;;;;;11.32;9.55;;;28.50;93.30;;;;;;5033682;28;20059;-62
2022/04/30 10:13:48;;;;;;;13.30;9.63;;;28.50;93.90;;;;;;5030747;28;20044;-61
2022/04/30 10:16:23;;;;;;;14.25;10.60;;;28.90;93.50;;;;;;5044949;28;20025;-61
2022/04/30 10:19:14;;;;;;;16.73;10.05;;;28.10;92.80;;;;;;5036708;28;20518;-61
2022/04/30 10:21:40;;;;;;;11.52;8.77;;;28.40;93.80;;;;;;5034800;28;20037;-61
2022/04/30 10:24:07;;;;;;;11.43;8.70;;;28.30;94.40;;;;;;5034589;28;20038;-61
2022/04/30 10:26:33;;;;;;;12.15;8.85;;;28.60;93.50;;;;;;5033622;28;20037;-61
2022/04/30 10:29:11;;;;;;;11.63;8.60;;;29.30;93.00;;;;;;5031632;28;20041;-61
2022/04/30 10:31:44;;;;;;;12.95;9.43;;;29.30;92.70;;;;;;5030901;28;20021;-61
2022/04/30 10:34:10;;;;;;;13.00;9.57;;;29.10;92.40;;;;;;5044058;28;20234;-61
2022/04/30 10:36:38;;;;;;;10.15;9.07;;;28.90;93.20;;;;;;5035002;28;20026;-61
2022/04/30 10:39:06;;;;;;;11.70;9.57;;;28.90;92.80;;;;;;5034735;28;20136;-61
2022/04/30 10:41:45;;;;;;;12.30;9.57;;;28.60;93.20;;;;;;5033680;28;20029;-62
2022/04/30 10:44:13;;;;;;;11.05;8.60;;;29.10;91.70;;;;;;5034224;28;20123;-59
2022/04/30 10:46:44;;;;;;;11.27;9.45;;;28.70;92.60;;;;;;5014228;28;20107;-59
2022/04/30 10:49:11;;;;;;;12.35;9.15;;;28.80;91.00;;;;;;5044571;28;20048;-61
2022/04/30 10:51:41;;;;;;;11.15;7.82;;;28.50;92.60;;;;;;5035015;28;20437;-61
2022/04/30 10:54:18;;;;;;;11.40;8.18;;;28.30;92.60;;;;;;5034406;28;20124;-61
2022/04/30 10:56:45;;;;;;;9.40;8.30;;;28.50;93.90;;;;;;5034354;28;20021;-61
2022/04/30 10:59:21;;;;;;;12.05;9.02;;;27.90;92.90;;;;;;5034012;28;20032;-61
2022/04/30 11:01:50;;;;;;;12.23;8.23;;;26.70;94.50;;;;;;5016379;28;20030;-61
2022/04/30 11:04:20;;;;;;;12.23;8.15;;;27.90;94.00;;;;;;5033752;28;20418;-61
2022/04/30 11:06:51;;;;;;;10.50;8.20;;;27.80;94.10;;;;;;5033994;28;20033;-61
2022/04/30 11:09:18;;;;;;;13.93;8.40;;;28.40;92.60;;;;;;5032720;28;20032;-61
2022/04/30 11:11:49;;;;;;;13.18;8.10;;;28.90;93.30;;;;;;5034285;28;20021;-61
2022/04/30 11:14:16;;;;;;;12.32;8.40;;;28.80;93.00;;;;;;5034130;28;20032;-61
2022/04/30 11:16:47;;;;;;;12.52;8.20;;;29.10;91.60;;;;;;5030301;28;20022;-61
2022/04/30 11:19:19;;;;;;;12.48;8.80;;;29.10;91.20;;;;;;5034475;28;20480;-62
2022/04/30 11:21:48;;;;;;;12.55;8.18;;;28.80;91.40;;;;;;5035373;28;20104;-61
2022/04/30 11:24:24;;;;;;;11.13;7.43;;;29.30;91.60;;;;;;5033969;28;20037;-61
2022/04/30 11:26:58;;;;;;;11.80;8.57;;;29.10;91.90;;;;;;5034223;28;20398;-61
2022/04/30 11:29:25;;;;;;;10.95;8.02;;;28.70;91.60;;;;;;5034257;28;20029;-61
2022/04/30 11:31:52;;;;;;;13.48;7.55;;;28.50;92.70;;;;;;5030774;28;20512;-62
2022/04/30 11:34:18;;;;;;;12.07;7.72;;;28.50;93.10;;;;;;5033555;28;20095;-61
2022/04/30 11:36:49;;;;;;;9.55;8.05;;;28.30;92.50;;;;;;5035124;28;20429;-61
2022/04/30 11:39:16;;;;;;;9.70;7.30;;;28.30;92.40;;;;;;5032389;28;20047;-62
2022/04/30 11:41:44;;;;;;;11.35;7.60;;;28.50;91.90;;;;;;5034020;28;20022;-62
2022/04/30 11:44:10;;;;;;;11.57;7.88;;;28.00;93.60;;;;;;5032445;28;20104;-62
2022/04/30 11:46:37;;;;;;;10.00;7.72;;;28.10;93.00;;;;;;5028556;28;20026;-62
2022/04/30 11:49:18;;;;;;;12.60;7.82;;;27.70;94.20;;;;;;5034318;28;20024;-62
2022/04/30 11:51:45;;;;;;;11.55;8.40;;;27.90;93.00;;;;;;5035422;28;20065;-61
2022/04/30 11:54:13;;;;;;;10.57;7.97;;;27.10;92.70;;;;;;5037082;28;20021;-61
2022/04/30 11:56:42;;;;;;;10.85;7.53;;;27.00;93.20;;;;;;5037495;28;20569;-61
2022/04/30 11:59:09;;;;;;;11.57;7.50;;;25.90;95.40;;;;;;5036388;28;20036;-61
2022/04/30 12:01:38;;;;;;;12.02;8.27;;;26.10;95.20;;;;;;5034010;28;20100;-62
2022/04/30 12:04:08;;;;;;;16.30;8.77;;;26.30;94.80;;;;;;5039344;28;20056;-61
2022/04/30 12:06:35;;;;;;;11.27;8.10;;;26.30;95.20;;;;;;5037374;28;20025;-61
2022/04/30 12:09:15;;;;;;;13.73;8.93;;;26.70;95.50;;;;;;5037639;28;20502;-61
2022/04/30 12:11:53;;;;;;;14.85;9.20;;;26.30;95.10;;;;;;5037154;28;20030;-61
2022/04/30 12:14:20;;;;;;;14.00;9.60;;;26.10;95.60;;;;;;5036880;28;20068;-62
2022/04/30 12:16:47;;;;;;;14.02;9.52;;;25.80;95.70;;;;;;5033664;28;20025;-61
2022/04/30 12:25:20;;;;;;;11.87;9.23;;;26.50;96.60;;;;;;5049967;28;20044;-61
2022/04/30 12:28:02;;;;;;;13.32;8.10;;;26.50;94.70;;;;;;5035634;28;20660;-61
2022/04/30 12:30:28;;;;;;;11.68;8.18;;;26.80;95.00;;;;;;5036817;28;20498;-61
2022/04/30 12:33:05;;;;;;;14.60;9.27;;;26.60;94.80;;;;;;5036915;28;20030;-61
2022/04/30 12:35:36;;;;;;;11.90;8.50;;;26.80;94.60;;;;;;5036824;28;20057;-61
2022/04/30 12:38:09;;;;;;;15.32;9.57;;;26.50;95.40;;;;;;5035587;28;20493;-61
2022/04/30 12:40:37;;;;;;;14.27;9.23;;;26.20;95.30;;;;;;5032882;28;20083;-62
2022/04/30 12:43:03;;;;;;;12.63;8.85;;;26.20;94.90;;;;;;5038515;28;20025;-61
2022/04/30 12:45:31;;;;;;;12.80;9.50;;;25.70;96.10;;;;;;5036655;28;20535;-61
2022/04/30 12:47:57;;;;;;;14.20;8.85;;;25.90;95.30;;;;;;5036455;28;20029;-61
2022/04/30 12:50:24;;;;;;;13.57;9.43;;;26.20;95.70;;;;;;5036625;28;20024;-62
2022/04/30 12:52:51;;;;;;;16.25;9.98;;;26.00;95.10;;;;;;5033484;28;20022;-61
2022/04/30 12:55:20;;;;;;;13.40;9.57;;;25.70;96.00;;;;;;5036170;28;20029;-61
2022/04/30 12:57:46;;;;;;;14.32;9.30;;;25.60;95.90;;;;;;5037518;28;20080;-61
2022/04/30 13:00:13;;;;;;;12.18;9.70;;;25.30;96.50;;;;;;5036650;28;20048;-61
2022/04/30 13:02:39;;;;;;;12.18;8.65;;;25.40;95.80;;;;;;5034886;28;20021;-61
2022/04/30 13:05:08;;;;;;;13.15;9.27;;;25.50;96.00;;;;;;5032973;28;20037;-61
2022/04/30 13:07:34;;;;;;;14.00;8.70;;;25.10;96.40;;;;;;5032509;28;20502;-61
2022/04/30 13:15:29;;;;;;;11.80;8.52;;;25.40;97.10;;;;;;5036409;28;20043;-61
2022/04/30 13:17:58;;;;;;;12.68;8.70;;;25.60;96.30;;;;;;5036084;28;20041;-61